Latest Weather Observations for Cape Moreton

IDQ60901

Issued at 9:11 pm EST Tuesday 24 January 2017 (issued every 10 minutes, with the page automatically refreshed every 10 minutes)

About weather observations | Map of Brisbane area stations | Latest observations for Brisbane area | Other Formats
Station Details ID: 040043 Name: CAPE MORETON LIGHTHOUSE Lat: -27.03 Lon: 153.47 Height: 99.9 m
Data from the previous 72 hours. | See also: Recent months at Cape Moreton
Date/Time
EST
Temp
°C
App
Temp
°C
Dew
Point
°C
Rel
Hum
%
Delta-T
°C
Wind Press
QNH
hPa
Press
MSL
hPa
Rain since
9am
mm
Dir  Spd
km/h
Gust
km/h
Spd
kts
Gust
kts
24/08:30pm 25.0 24.4 19.8 73 3.4 N 22 30 12 16 1015.1 1014.6 0.0
24/08:00pm 25.0 23.6 18.9 69 3.9 N 24 32 13 17 1014.7 1014.1 0.0
24/07:30pm 25.2 23.6 19.3 70 3.8 N 26 32 14 17 1014.4 1013.8 0.0
24/07:00pm 25.2 24.3 19.8 72 3.5 NNE 24 32 13 17 1014.2 1013.6 0.0
24/06:30pm 25.4 23.7 18.1 64 4.6 NNE 24 30 13 16 1014.0 1013.4 0.0
24/06:00pm 25.7 23.8 18.6 65 4.5 NNE 26 30 14 16 1013.9 1013.3 0.0
24/05:30pm 25.9 24.8 18.6 64 4.7 NE 22 28 12 15 1013.6 1013.0 0.0
24/05:00pm 26.2 25.3 18.1 61 5.1 NE 20 28 11 15 1013.3 1012.7 0.0
24/04:30pm 26.4 25.6 18.5 62 5.0 NE 20 28 11 15 1013.3 1012.7 0.0
24/04:00pm 26.6 25.7 18.2 60 5.3 NE 20 26 11 14 1013.5 1012.9 0.0
24/03:30pm 26.7 25.5 17.5 57 5.8 NE 20 24 11 13 1013.6 1013.0 0.0
24/03:00pm 27.6 26.5 17.2 53 6.5 NE 19 24 10 13 1013.9 1013.3 0.0
24/02:30pm 28.3 26.7 17.5 52 6.8 NNE 22 28 12 15 1014.1 1013.5 0.0
24/02:00pm 29.3 28.4 17.8 50 7.3 NNE 19 24 10 13 1014.4 1013.8 0.0
24/01:30pm 28.7 27.8 16.9 48 7.4 NNE 17 22 9 12 1014.7 1014.1 0.0
24/01:00pm 28.0 27.3 16.3 49 7.3 N 15 20 8 11 1015.1 1014.6 0.0
24/12:30pm 27.4 26.9 17.0 53 6.5 N 15 19 8 10 1015.3 1014.8 0.0
24/12:00pm 27.5 27.5 17.1 53 6.5 NNW 13 17 7 9 1015.6 1015.1 0.0
24/11:30am 27.6 27.0 16.6 51 6.9 NW 15 20 8 11 1016.1 1015.6 0.0
24/11:00am 27.3 27.1 16.6 52 6.7 NW 13 19 7 10 1016.4 1015.9 0.0
24/10:30am 27.5 27.2 17.4 54 6.4 NW 15 20 8 11 1016.8 1016.3 0.0
24/10:00am 26.7 26.0 16.3 53 6.4 NNW 15 20 8 11 1017.1 1016.6 0.0
24/09:30am 27.0 27.4 17.2 55 6.2 NW 11 15 6 8 1017.2 1016.7 0.0
24/09:00am 26.8 27.1 16.1 52 6.6 NW 9 15 5 8 1017.2 1016.7 0.0
24/08:30am 26.6 27.2 16.8 55 6.1 NW 9 15 5 8 1017.3 1016.8 0.0
24/08:00am 26.2 26.8 17.6 59 5.4 NW 11 15 6 8 1017.3 1016.8 0.0
24/07:30am 26.0 26.2 16.8 57 5.7 NW 11 15 6 8 1017.4 1016.9 0.0
24/07:00am 26.0 26.6 16.8 57 5.7 NW 9 15 5 8 1017.2 1016.7 0.0
24/06:30am 25.3 25.3 16.2 57 5.6 NW 11 13 6 7 1016.9 1016.4 0.0
24/06:00am 25.3 25.4 15.6 55 5.9 N 9 9 5 5 1016.5 1016.0 0.0
24/05:30am 24.7 24.7 15.3 56 5.7 NE 9 13 5 7 1016.3 1015.8 0.0
24/05:00am 24.3 23.5 15.0 56 5.6 N 13 17 7 9 1016.0 1015.5 0.0
24/04:30am 24.4 22.7 14.8 55 5.7 NNE 17 20 9 11 1015.8 1015.3 0.0
24/04:00am 24.4 23.1 14.8 55 5.7 NNE 15 22 8 12 1015.7 1015.2 0.0
24/03:30am 24.6 22.3 15.8 58 5.4 NNE 22 28 12 15 1015.5 1015.0 0.0
24/03:00am 24.6 24.2 17.1 63 4.7 N 15 20 8 11 1015.7 1015.2 0.0
24/02:30am 24.6 23.8 15.2 55 5.7 NNE 13 22 7 12 1015.7 1015.2 0.0
24/02:00am 24.6 24.2 16.3 60 5.1 NNE 13 20 7 11 1015.6 1015.1 0.0
24/01:30am 24.5 24.3 17.7 66 4.3 NE 15 22 8 12 1015.7 1015.2 0.0
24/01:00am 24.5 24.6 17.5 65 4.4 ENE 13 17 7 9 1015.7 1015.2 0.0
24/12:30am 24.3 23.7 17.5 66 4.2 ENE 17 20 9 11 1015.9 1015.4 0.0
24/12:00am 24.4 23.6 16.1 60 5.1 ENE 15 19 8 10 1016.2 1015.7 0.0
 
Date/Time
EST
Temp
°C
App
Temp
°C
Dew
Point
°C
Rel
Hum
%
Delta-T
°C
Wind Press
QNH
hPa
Press
MSL
hPa
Rain since
9am
mm
Dir  Spd
km/h
Gust
km/h
Spd
kts
Gust
kts
23/11:30pm 24.4 23.7 15.3 57 5.5 NE 13 17 7 9 1016.6 1016.1 0.0
23/11:00pm 24.8 21.3 15.4 56 5.7 ENE 28 33 15 18 1016.8 1016.3 0.0
23/10:30pm 24.8 21.6 16.2 58 5.3 ENE 28 32 15 17 1017.0 1016.5 0.0
23/10:00pm 24.8 23.5 15.7 57 5.5 ENE 17 20 9 11 1017.3 1016.8 0.0
23/09:30pm 24.8 24.3 17.0 62 4.8 NE 15 22 8 12 1017.3 1016.8 0.0
23/09:00pm 24.7 24.9 16.7 61 4.9 NE 11 13 6 7 1017.2 1016.7 0.0
23/08:30pm 24.6 23.3 16.8 62 4.8 ENE 19 22 10 12 1016.9 1016.4 0.0
23/08:00pm 24.6 23.3 16.8 62 4.8 ENE 19 22 10 12 1016.8 1016.3 0.0
23/07:30pm 24.6 23.4 16.1 59 5.2 ENE 17 24 9 13 1016.7 1016.2 0.0
23/07:00pm 24.3 23.0 17.3 65 4.4 ENE 20 28 11 15 1016.4 1015.9 0.0
23/06:30pm 24.4 23.0 17.1 63 4.5 E 20 24 11 13 1016.0 1015.5 0.0
23/06:00pm 24.7 23.2 16.7 61 4.9 ENE 20 24 11 13 1015.7 1015.2 0.0
23/05:30pm 24.9 23.7 17.1 62 4.9 E 19 24 10 13 1015.5 1015.0 0.0
23/05:00pm 25.3 23.9 17.0 60 5.2 E 20 24 11 13 1015.1 1014.6 0.0
23/04:30pm 25.8 23.7 17.2 59 5.4 E 24 28 13 15 1015.0 1014.5 0.0
23/04:00pm 26.3 24.9 17.1 57 5.8 E 20 26 11 14 1014.8 1014.2 0.0
23/03:30pm 26.8 25.3 17.8 57 5.7 E 22 26 12 14 1014.8 1014.2 0.0
23/03:00pm 26.8 25.5 17.3 56 6.0 ESE 20 26 11 14 1015.0 1014.5 0.0
23/02:30pm 27.2 25.7 17.7 56 6.0 ESE 22 28 12 15 1015.2 1014.7 0.0
23/02:00pm 27.5 27.0 17.9 55 6.1 E 17 20 9 11 1015.5 1015.0 0.0
23/01:30pm 26.8 24.9 17.6 57 5.8 E 24 28 13 15 1015.7 1015.2 0.0
23/01:00pm 26.5 23.7 17.3 57 5.8 ESE 28 32 15 17 1015.8 1015.3 0.0
23/12:30pm 27.2 25.7 17.7 56 6.0 E 22 30 12 16 1016.1 1015.6 0.0
23/12:00pm 27.1 26.0 17.3 55 6.2 ESE 19 24 10 13 1016.3 1015.8 0.0
23/11:30am 26.5 24.9 16.4 53 6.3 SE 20 24 11 13 1016.8 1016.3 0.0
23/11:00am 26.8 25.2 16.4 53 6.4 SE 20 24 11 13 1017.0 1016.5 0.0
23/10:30am 25.6 23.1 16.2 56 5.8 ESE 24 30 13 16 1017.2 1016.7 0.0
23/10:00am 25.8 22.9 16.1 55 6.0 ESE 26 32 14 17 1017.1 1016.6 0.0
23/09:30am 26.3 24.7 16.5 54 6.1 ESE 20 26 11 14 1017.3 1016.8 0.0
23/09:00am 26.0 23.1 16.0 54 6.1 SE 26 32 14 17 1017.0 1016.5 0.0
23/08:30am 25.3 23.6 16.2 57 5.6 SE 20 24 11 13 1016.8 1016.3 0.0
23/08:00am 24.8 22.5 14.6 53 6.1 ESE 20 24 11 13 1016.8 1016.3 0.0
23/07:30am 24.6 22.0 15.0 55 5.8 SE 22 28 12 15 1016.8 1016.3 0.0
23/07:00am 24.3 22.0 14.7 55 5.7 ESE 20 26 11 14 1016.7 1016.2 0.0
23/06:30am 23.9 20.6 14.0 54 5.8 SE 24 30 13 16 1016.3 1015.8 0.0
23/06:00am 23.7 18.3 13.8 53 5.8 ESE 35 44 19 24 1015.7 1015.2 0.0
23/05:30am 23.6 19.9 14.9 58 5.2 ESE 28 33 15 18 1015.4 1014.9 0.0
23/05:00am 23.6 19.8 14.6 57 5.3 ESE 28 35 15 19 1015.3 1014.8 0.0
23/04:30am 23.4 18.9 14.9 59 5.1 ESE 32 39 17 21 1015.0 1014.5 0.0
23/04:00am 23.6 19.6 16.1 62 4.6 ESE 32 41 17 22 1014.8 1014.2 0.0
23/03:30am 23.4 21.4 17.4 69 3.7 ESE 24 37 13 20 1014.7 1014.1 0.0
23/03:00am 23.4 20.2 16.4 64 4.3 ESE 28 35 15 19 1014.7 1014.1 0.0
23/02:30am 23.3 19.5 14.6 58 5.2 ESE 28 37 15 20 1014.9 1014.3 0.0
23/02:00am 23.3 19.9 15.9 63 4.5 ESE 28 35 15 19 1014.9 1014.3 0.0
23/01:30am 23.3 19.2 14.8 59 5.1 ESE 30 35 16 19 1015.2 1014.7 0.0
23/01:00am 23.4 19.5 15.5 61 4.8 ESE 30 35 16 19 1015.4 1014.9 0.0
23/12:30am 23.5 18.1 16.1 63 4.5 ESE 39 46 21 25 1015.4 1014.9 0.0
23/12:00am 23.5 19.5 17.5 69 3.7 ESE 35 43 19 23 1015.6 1015.1 0.0
 
Date/Time
EST
Temp
°C
App
Temp
°C
Dew
Point
°C
Rel
Hum
%
Delta-T
°C
Wind Press
QNH
hPa
Press
MSL
hPa
Rain since
9am
mm
Dir  Spd
km/h
Gust
km/h
Spd
kts
Gust
kts
22/11:30pm 23.4 18.9 17.4 69 3.7 ESE 37 44 20 24 1015.7 1015.2 0.0
22/11:00pm 23.5 19.0 17.3 68 3.8 ESE 37 44 20 24 1016.0 1015.5 0.0
22/10:30pm 23.6 19.6 17.6 69 3.7 ESE 35 41 19 22 1016.3 1015.8 0.0
22/10:00pm 23.7 19.7 18.4 72 3.3 ESE 37 43 20 23 1016.5 1016.0 0.0
22/09:30pm 23.8 20.0 18.2 71 3.5 ESE 35 41 19 22 1016.3 1015.8 0.0
22/09:00pm 23.7 20.5 18.1 71 3.5 ESE 32 37 17 20 1016.2 1015.7 0.0
22/08:30pm 23.7 20.0 17.4 68 3.9 ESE 33 39 18 21 1016.3 1015.8 0.0
22/08:00pm 23.7 19.6 17.4 68 3.9 ESE 35 41 19 22 1016.1 1015.6 0.0
22/07:30pm 23.7 20.0 17.4 68 3.9 ESE 33 43 18 23 1015.9 1015.4 0.0
22/07:00pm 23.8 19.5 16.8 65 4.3 ESE 35 41 19 22 1015.7 1015.2 0.0
22/06:30pm 23.9 19.2 16.9 65 4.3 ESE 37 43 20 23 1015.5 1015.0 0.0
22/06:00pm 24.3 19.5 16.6 62 4.7 ESE 37 44 20 24 1015.0 1014.5 0.0
22/05:30pm 24.6 19.6 17.1 63 4.7 ESE 39 44 21 24 1014.8 1014.2 0.0
22/05:00pm 24.8 20.1 16.8 61 5.0 ESE 37 44 20 24 1014.4 1013.8 0.0
22/04:30pm 25.2 21.1 17.4 62 4.9 ESE 35 41 19 22 1014.5 1013.9 0.0
22/04:00pm 25.2 21.4 17.1 60 5.0 SE 33 41 18 22 1014.5 1013.9 0.0
22/03:30pm 25.7 22.1 17.6 61 5.1 ESE 33 37 18 20 1014.7 1014.1 0.0
22/03:00pm 26.1 22.4 17.5 59 5.4 SE 33 39 18 21 1014.9 1014.3 0.0
22/02:30pm 25.9 21.6 17.0 58 5.5 SE 35 39 19 21 1015.0 1014.5 0.0
22/02:00pm 26.2 22.2 17.6 59 5.4 SE 35 43 19 23 1015.2 1014.7 0.0
22/01:30pm 26.0 22.0 17.6 60 5.3 ESE 35 43 19 23 1015.3 1014.8 0.0
22/01:00pm 27.0 23.7 18.3 59 5.5 ESE 33 41 18 22 1015.6 1015.1 0.0
22/12:30pm 26.6 22.1 18.2 60 5.3 ESE 39 44 21 24 1015.8 1015.3 0.0
22/12:00pm 26.3 22.0 18.7 63 4.9 ESE 39 44 21 24 1016.0 1015.5 0.0
22/11:30am 26.6 22.1 18.2 60 5.3 SE 39 48 21 26 1016.0 1015.5 0.0
22/11:00am 26.3 22.6 19.2 65 4.6 SE 37 44 20 24 1016.0 1015.5 0.0
22/10:30am 25.7 21.5 18.9 66 4.4 SE 39 46 21 25 1016.0 1015.5 0.0
22/10:00am 26.9 23.3 19.3 63 4.9 SE 37 44 20 24 1016.1 1015.6 0.0
22/09:30am 25.9 21.8 19.1 66 4.4 SE 39 46 21 25 1016.0 1015.5 0.0
22/09:00am 25.7 21.5 19.8 70 3.8 SE 41 52 22 28 1015.9 1015.4 5.6
22/08:30am 25.0 20.2 19.6 72 3.5 SE 44 52 24 28 1015.6 1015.1 5.6
22/08:00am 25.0 20.3 19.4 71 3.6 SE 43 56 23 30 1015.3 1014.8 5.6
22/07:30am 25.1 19.8 19.5 71 3.6 SE 46 56 25 30 1015.0 1014.5 5.6
22/07:00am 24.7 20.2 20.0 75 3.1 ESE 43 54 23 29 1014.9 1014.3 5.6
22/06:30am 24.4 19.3 19.0 72 3.5 SE 44 52 24 28 1014.8 1014.2 5.6
22/06:00am 24.1 19.0 19.8 77 2.8 ESE 46 57 25 31 1014.4 1013.8 5.6
22/05:30am 24.2 18.9 19.5 75 3.0 SE 46 56 25 30 1014.0 1013.4 5.6
22/05:00am 24.1 18.8 19.4 75 3.0 ESE 46 54 25 29 1013.4 1012.8 5.6
22/04:30am 23.9 18.5 19.2 75 3.0 ESE 46 57 25 31 1012.9 1012.3 5.6
22/04:00am 24.0 18.7 19.5 76 2.9 ESE 46 57 25 31 1012.4 1011.9 5.6
22/03:30am 24.1 18.3 20.0 78 2.7 SE 50 57 27 31 1012.1 1011.6 5.6
22/03:00am 24.1 19.7 20.2 79 2.5 ESE 43 50 23 27 1012.1 1011.6 5.6
22/02:30am 24.2 19.2 20.1 78 2.7 ESE 46 54 25 29 1012.3 1011.8 5.6
22/02:00am 24.2 19.8 20.5 80 2.4 ESE 44 52 24 28 1012.2 1011.7 5.6
22/01:30am 24.2 19.8 20.5 80 2.4 ESE 44 52 24 28 1012.1 1011.6 5.6
22/01:00am 24.3 18.8 19.8 76 2.9 ESE 48 56 26 30 1012.3 1011.8 5.6
22/12:30am 24.3 18.7 19.6 75 3.0 SE 48 56 26 30 1012.5 1012.0 5.6
22/12:00am 24.3 18.4 19.8 76 2.9 ESE 50 59 27 32 1012.5 1012.0 5.6
 
Date/Time
EST
Temp
°C
App
Temp
°C
Dew
Point
°C
Rel
Hum
%
Delta-T
°C
Wind Press
QNH
hPa
Press
MSL
hPa
Rain since
9am
mm
Dir  Spd
km/h
Gust
km/h
Spd
kts
Gust
kts
21/11:30pm 24.4 19.2 20.5 79 2.6 ESE 48 59 26 32 1012.7 1012.1 5.6
21/11:00pm 24.5 18.8 21.0 81 2.3 ESE 52 61 28 33 1012.9 1012.3 5.6
21/10:30pm 24.5 18.8 21.0 81 2.3 ESE 52 61 28 33 1013.1 1012.5 5.6
21/10:00pm 24.5 18.3 21.4 83 2.1 ESE 56 63 30 34 1012.7 1012.1 5.6
21/09:30pm 24.5 18.6 21.2 82 2.2 ESE 54 63 29 34 1012.4 1011.9 5.6

Latest Capital City Observations: Canberra | Sydney | Melbourne | Brisbane | Adelaide | Perth | Hobart | Darwin

Other Formats:

Comma delimited format used in spreadsheet applications
http://www.bom.gov.au/fwo/IDQ60901/IDQ60901.94594.axf

JavaScript Object Notation format (JSON) in row-major order
http://www.bom.gov.au/fwo/IDQ60901/IDQ60901.94594.json